Terminal Aerodrome Forecast
Issued by NWS

Home | Current Version | Previous Version | Text Only | Print | Product List | Glossary On
Versions: 1 2 3 4 5 6 7 8 9 10 11 12
000
FTUS42 TJSJ 011700
TAFNCM
TAF
TNCM 011730Z 0118/0218 05014G22KT P6SM SCT018
      TEMPO 0118/0120 BKN018
     FM012300 08011KT P6SM FEW022
     FM021300 08015KT P6SM SCT022=

USA.gov is the U.S. government's official web portal to all federal, state and local government web resources and services.